Pagina principale
METAR-TAF:

METAR-TAF

Aeroporti :

Aeroporto Internazionale Jinnah

Karachi, Pakistan

latitudine: 24-54N, longitudine: 067-08E, altezza: 21 m

Osservazione

Il bollettino è stato emesso 53 minuti fa, alle 05:25 UTC
Vento 8 kt da ovest
Temperature 30°C
Umidità 59%
Pressione 1009 hPa
Visibilità: 7000 m
Nubi sparse ad un'altezza di 2000 ft

METAR: OPKC 210525Z 26008KT 7000 SCT020 30/21 Q1009 NOSIG

Ora: 11:18 (06:18 UTC)

Previsione

Il bollettino è stato emesso 2 ore e 48 minuti fa, alle 03:30 UTC
Previsione valida dal 21 alle 06 UTC al 21 alle 15 UTC
Vento 5 kt da ovest/sud-ovest con raffiche fino a 15 kt
Visibilità: 6000 m
Nubi sparse ad un'altezza di 2500 ft

TAF: OPKC 210330Z 2106/2115 24005G15KT 6000 SCT025

Osservazioni e previsioni meteorologiche di più di 4000 aeroporti (messaggi METAR e TAF).

Le stazioni disponibili sono rappresentate dai dischi gialli e rossi sulla carta.

Puntare il mouse per vedere il nome della stazione.

Clicca sopra per visualizzare le osservazioni e previsioni meteorologiche.

Per cambiare la mappa : fare clic sui pulsanti verdi con una croce nera per ingrandire, il pulsante verde con un trattino per diminuire, o sulla freccia verde per le mappe adiacenti.


METAR-TAF: